Warning: Javascript must be enabled to use all the features on this page!


Page Loading - Please Wait...

Click to hideNews Bulletins

Peak Streamflow for the Nation

USGS 01317000 SCHROON RIVER AT RIVERBANK NY

Warren County, New York
Hydrologic Unit Code 02020001
Latitude  43°36'34", Longitude  73°44'15" NAD83
Drainage area 527  square miles
Gage datum 699.31 feet above NGVD29
Output formats
Table
Graph
Tab-separated file
peakfq (watstore) format
Reselect output format
Water
Year
Date Gage
Height
(feet)
Stream-
flow
(cfs)
1908 1908-04-12 6.40 4,6005
1909 1909-04-16 8.67 8,2505
1910 1910-04-01 7.25 5,8805
1911 1911-04-17 5.50 3,4005
1912 1912-04-19 7.40 6,1205
1913 1913-03-28 10.70 10,4005
1914 1914-04-22 9.25 7,5005
1915 1915-04-15 4.70 2,2605
1916 1916-05-19 6.02 3,6005
1917 1917-04-05 6.50 4,6305
1918 1918-04-04 7.25 5,8205
1919 1919-04-13 6.70 4,8005
1920 1920-04-16 6.25 4,2405
1921 1921-03-23 7.18 5,7205
1922 1922-04-13 10.23 9,7405
1923 1923-04-12 6.70 4,6705
1924 1924-05-05 7.11 5,2005
1925 1925-03-30 9.30 8,3505
1926 1926-04-26 9.60 7,7205
1927 1927-03-22 5.60 3,0005
1928 1928-04-09 8.20 5,8405
1929 1929-03-26 6.63 4,0305
1930 1930-04-09 6.80 4,2205
1931 1931-04-15 6.21 3,5705
1932 1932-04-14 7.57 5,0805
1933 1933-04-20 9.74 7,6105
1934 1934-04-14 7.70 5,0405
1935 1935-05-02 5.27 2,4805
1936 1936-03-21 12.18 12,1005
1937 1937-05-18 7.11 4,5905
1938 1938-03-26 7.50 4,5905
1939 1939-04-28 9.16 7,1505
1940 1940-05-04 7.96 4,9505
1941 1941-04-17 6.65 3,5705
1942 1942-04-09 6.90 3,8205
1943 1943-05-01 6.68 3,6005
1944 1944-04-27 8.29 5,3305
1945 1945-03-23 8.06 5,0605
1946 1946-03-18 6.57 3,5705
1947 1947-06-04 9.16 6,5705
1948 1948-04-03 8.33 5,5405
1949 1949-01-02 9.25 6,6805
1950 1950-04-22 7.61 4,6705
1951 1951-04-14 8.57 5,8205
1952 1952-04-08 8.95 6,3605
1953 1953-03-28 10.41 8,3305
1954 1954-04-19 8.27 5,5005
1955 1955-04-17 8.36 5,6105
1956 1956-05-02 6.63 3,6405
1957 1957-04-09 4.022 1,3905
1958 1958-04-23 9.30 6,8205
1959 1959-04-11 8.00 5,1805
1960 1960-04-19 7.98 5,1605
1961 1961-04-25 5.60 2,6705
1962 1962-04-10 8.73 6,0805
1963 1963-04-06 7.58 4,6805
1964 1964-04-17 5.96 2,9905
1965 1965-04-25 5.43 2,5205
1966 1966-05-22 5.89 2,9305
1967 1967-04-06 6.46 3,4705
1968 1968-03-25 6.80 3,8105
1969 1969-04-24 9.62 7,2405
1970 1970-04-27 8.01 5,1905
1987 1987-03-31 8.93 6,3405
1988 1988-04-05 5.86 2,9105
1989 1989-03-30 6.42 3,4305
1990 1990-03-18 8.02 5,2005
1991 1990-10-24 6.68 3,6905
1992 1992-04-23 8.49 5,7705
1993 1993-04-18 9.55 7,1405
1994 1994-04-17 9.63 7,2505
1995 1995-03-18 4.83 2,0205
1996 1996-04-24 7.32 4,3805
1997 1997-04-07 6.61 3,6205
1998 1998-04-02 9.38 6,9205
1999 1999-04-04 7.29 4,3505
2000 2000-03-28 7.22 4,2705
2001 2001-04-25 10.11 7,9005
2002 2002-04-16 7.56 4,6505
2003 2003-03-31 6.99 4,0305
2004 2003-10-31 6.14 3,1705
2005 2005-06-19 8.28 5,5005
2006 2006-06-30 7.06 4,1005
2007 2007-04-25 8.92 6,3005
2008 2008-04-14 9.11 6,4505
2009 2009-04-05 6.70 3,7205
2010 2010-03-25 8.09 5,2705
2011 2011-04-29 10.85 8,6505
2012 2012-03-21 5.07 1,9805
2013 2013-04-21 6.37 3,0905
2014 2014-04-17 9.79 6,8505
2015 2015-04-23 6.05 2,7905
2016 2016-03-18 5.07 1,9805
2017 2017-04-13 7.70 4,4005
2018 2018-04-30 6.91 3,5905
2019 2019-04-22 9.52 6,5105
?
  Peak Gage-Height Qualification Codes.
?
  Peak Streamflow Qualification Codes.